sensor_id;sensor_type;location;lat;lon;timestamp;temperature;humidity
79020;DHT22;72857;44.740;37.770;2024-03-02T00:00:00;9.77;40.73
79020;DHT22;72857;44.740;37.770;2024-03-02T00:01:13;9.74;41.11
79020;DHT22;72857;44.740;37.770;2024-03-02T00:02:15;9.73;40.83
79020;DHT22;72857;44.740;37.770;2024-03-02T00:03:17;9.73;41.14
79020;DHT22;72857;44.740;37.770;2024-03-02T00:04:19;9.70;40.98
79020;DHT22;72857;44.740;37.770;2024-03-02T00:05:21;9.69;41.13
79020;DHT22;72857;44.740;37.770;2024-03-02T00:06:23;9.69;41.46
79020;DHT22;72857;44.740;37.770;2024-03-02T00:07:25;9.67;41.25
79020;DHT22;72857;44.740;37.770;2024-03-02T00:08:26;9.64;41.21
79020;DHT22;72857;44.740;37.770;2024-03-02T00:09:29;9.61;41.58
79020;DHT22;72857;44.740;37.770;2024-03-02T00:10:39;9.60;41.74
79020;DHT22;72857;44.740;37.770;2024-03-02T00:11:41;9.56;41.41
79020;DHT22;72857;44.740;37.770;2024-03-02T00:12:42;9.57;41.13
79020;DHT22;72857;44.740;37.770;2024-03-02T00:13:45;9.60;40.63
79020;DHT22;72857;44.740;37.770;2024-03-02T00:14:46;9.63;41.17
79020;DHT22;72857;44.740;37.770;2024-03-02T00:15:52;9.64;40.19
79020;DHT22;72857;44.740;37.770;2024-03-02T00:16:55;9.64;40.69
79020;DHT22;72857;44.740;37.770;2024-03-02T00:17:57;9.67;40.48
79020;DHT22;72857;44.740;37.770;2024-03-02T00:19:03;9.70;40.07
79020;DHT22;72857;44.740;37.770;2024-03-02T00:20:09;9.71;39.97
79020;DHT22;72857;44.740;37.770;2024-03-02T00:21:11;9.71;39.79
79020;DHT22;72857;44.740;37.770;2024-03-02T00:22:14;9.70;40.08
79020;DHT22;72857;44.740;37.770;2024-03-02T00:23:16;9.70;40.36
79020;DHT22;72857;44.740;37.770;2024-03-02T00:24:34;9.64;40.32
79020;DHT22;72857;44.740;37.770;2024-03-02T00:25:39;9.58;40.28
79020;DHT22;72857;44.740;37.770;2024-03-02T00:26:45;9.54;40.42
79020;DHT22;72857;44.740;37.770;2024-03-02T00:27:49;9.53;40.31
79020;DHT22;72857;44.740;37.770;2024-03-02T00:28:54;9.50;40.62
79020;DHT22;72857;44.740;37.770;2024-03-02T00:29:57;9.53;40.76
79020;DHT22;72857;44.740;37.770;2024-03-02T00:32:03;9.47;39.71
79020;DHT22;72857;44.740;37.770;2024-03-02T00:33:08;9.48;40.33
79020;DHT22;72857;44.740;37.770;2024-03-02T00:34:12;9.51;39.75
79020;DHT22;72857;44.740;37.770;2024-03-02T00:35:23;9.53;40.47
79020;DHT22;72857;44.740;37.770;2024-03-02T00:36:26;9.47;40.98
79020;DHT22;72857;44.740;37.770;2024-03-02T00:37:29;9.46;41.01
79020;DHT22;72857;44.740;37.770;2024-03-02T00:38:31;9.43;40.97
79020;DHT22;72857;44.740;37.770;2024-03-02T00:39:33;9.37;41.25
79020;DHT22;72857;44.740;37.770;2024-03-02T00:40:34;9.37;40.48
79020;DHT22;72857;44.740;37.770;2024-03-02T00:41:36;9.30;40.30
79020;DHT22;72857;44.740;37.770;2024-03-02T00:42:37;9.35;40.33
79020;DHT22;72857;44.740;37.770;2024-03-02T00:43:42;9.33;40.14
79020;DHT22;72857;44.740;37.770;2024-03-02T00:44:44;9.36;40.20
79020;DHT22;72857;44.740;37.770;2024-03-02T00:45:48;9.37;40.46
79020;DHT22;72857;44.740;37.770;2024-03-02T00:46:49;9.37;40.02
79020;DHT22;72857;44.740;37.770;2024-03-02T00:47:51;9.37;40.19
79020;DHT22;72857;44.740;37.770;2024-03-02T00:49:55;9.39;40.10
79020;DHT22;72857;44.740;37.770;2024-03-02T00:50:57;9.36;39.49
79020;DHT22;72857;44.740;37.770;2024-03-02T00:51:58;9.37;40.04
79020;DHT22;72857;44.740;37.770;2024-03-02T00:53:01;9.37;38.44
79020;DHT22;72857;44.740;37.770;2024-03-02T00:54:05;9.43;39.29
79020;DHT22;72857;44.740;37.770;2024-03-02T00:55:07;9.44;39.48
79020;DHT22;72857;44.740;37.770;2024-03-02T00:56:10;9.46;40.19
79020;DHT22;72857;44.740;37.770;2024-03-02T00:57:13;9.42;39.41
79020;DHT22;72857;44.740;37.770;2024-03-02T00:58:15;9.44;38.23
79020;DHT22;72857;44.740;37.770;2024-03-02T00:59:21;9.58;38.54
79020;DHT22;72857;44.740;37.770;2024-03-02T01:00:23;9.60;38.33
79020;DHT22;72857;44.740;37.770;2024-03-02T01:01:24;9.63;38.13
79020;DHT22;72857;44.740;37.770;2024-03-02T01:02:26;9.64;37.80
79020;DHT22;72857;44.740;37.770;2024-03-02T01:03:27;9.64;38.24
79020;DHT22;72857;44.740;37.770;2024-03-02T01:04:29;9.61;38.41
79020;DHT22;72857;44.740;37.770;2024-03-02T01:05:30;9.56;38.78
79020;DHT22;72857;44.740;37.770;2024-03-02T01:06:32;9.54;38.74
79020;DHT22;72857;44.740;37.770;2024-03-02T01:07:33;9.54;38.74
79020;DHT22;72857;44.740;37.770;2024-03-02T01:08:35;9.51;38.44
79020;DHT22;72857;44.740;37.770;2024-03-02T01:09:36;9.51;38.99
79020;DHT22;72857;44.740;37.770;2024-03-02T01:10:38;9.51;39.17
79020;DHT22;72857;44.740;37.770;2024-03-02T01:11:39;9.48;38.84
79020;DHT22;72857;44.740;37.770;2024-03-02T01:12:40;9.44;39.52
79020;DHT22;72857;44.740;37.770;2024-03-02T01:13:42;9.40;39.34
79020;DHT22;72857;44.740;37.770;2024-03-02T01:14:43;9.39;40.09
79020;DHT22;72857;44.740;37.770;2024-03-02T01:15:45;9.30;39.82
79020;DHT22;72857;44.740;37.770;2024-03-02T01:16:46;9.29;40.20
79020;DHT22;72857;44.740;37.770;2024-03-02T01:17:48;9.25;40.28
79020;DHT22;72857;44.740;37.770;2024-03-02T01:18:49;9.16;40.49
79020;DHT22;72857;44.740;37.770;2024-03-02T01:19:51;9.08;40.93
79020;DHT22;72857;44.740;37.770;2024-03-02T01:20:52;9.06;40.66
79020;DHT22;72857;44.740;37.770;2024-03-02T01:21:56;9.09;41.05
79020;DHT22;72857;44.740;37.770;2024-03-02T01:22:57;9.08;41.01
79020;DHT22;72857;44.740;37.770;2024-03-02T01:23:59;9.12;40.51
79020;DHT22;72857;44.740;37.770;2024-03-02T01:25:01;9.08;41.08
79020;DHT22;72857;44.740;37.770;2024-03-02T01:26:02;9.06;41.16
79020;DHT22;72857;44.740;37.770;2024-03-02T01:27:04;9.08;39.98
79020;DHT22;72857;44.740;37.770;2024-03-02T01:28:05;9.14;39.64
79020;DHT22;72857;44.740;37.770;2024-03-02T01:29:07;9.15;40.16
79020;DHT22;72857;44.740;37.770;2024-03-02T01:30:09;9.18;40.86
79020;DHT22;72857;44.740;37.770;2024-03-02T01:31:11;9.09;40.50
79020;DHT22;72857;44.740;37.770;2024-03-02T01:32:14;9.05;40.56
79020;DHT22;72857;44.740;37.770;2024-03-02T01:33:17;9.05;40.84
79020;DHT22;72857;44.740;37.770;2024-03-02T01:34:19;9.01;40.81
79020;DHT22;72857;44.740;37.770;2024-03-02T01:35:20;8.95;40.85
79020;DHT22;72857;44.740;37.770;2024-03-02T01:36:21;8.93;40.73
79020;DHT22;72857;44.740;37.770;2024-03-02T01:37:23;8.92;41.22
79020;DHT22;72857;44.740;37.770;2024-03-02T01:38:24;8.93;41.26
79020;DHT22;72857;44.740;37.770;2024-03-02T01:39:25;8.95;41.95
79020;DHT22;72857;44.740;37.770;2024-03-02T01:40:27;8.84;42.08
79020;DHT22;72857;44.740;37.770;2024-03-02T01:41:29;8.79;41.79
79020;DHT22;72857;44.740;37.770;2024-03-02T01:42:31;8.75;42.02
79020;DHT22;72857;44.740;37.770;2024-03-02T01:43:32;8.72;42.10
79020;DHT22;72857;44.740;37.770;2024-03-02T01:44:33;8.76;42.40
79020;DHT22;72857;44.740;37.770;2024-03-02T01:45:35;8.68;42.22
79020;DHT22;72857;44.740;37.770;2024-03-02T01:46:38;8.68;41.96
79020;DHT22;72857;44.740;37.770;2024-03-02T01:47:39;8.68;42.19
79020;DHT22;72857;44.740;37.770;2024-03-02T01:48:41;8.67;42.25
79020;DHT22;72857;44.740;37.770;2024-03-02T01:49:42;8.65;42.45
79020;DHT22;72857;44.740;37.770;2024-03-02T01:50:44;8.63;42.08
79020;DHT22;72857;44.740;37.770;2024-03-02T01:51:45;8.61;42.24
79020;DHT22;72857;44.740;37.770;2024-03-02T01:52:47;8.61;42.78
79020;DHT22;72857;44.740;37.770;2024-03-02T01:53:48;8.57;42.30
79020;DHT22;72857;44.740;37.770;2024-03-02T01:54:50;8.58;42.07
79020;DHT22;72857;44.740;37.770;2024-03-02T01:55:51;8.64;41.29
79020;DHT22;72857;44.740;37.770;2024-03-02T01:56:52;8.67;42.02
79020;DHT22;72857;44.740;37.770;2024-03-02T01:57:54;8.67;41.68
79020;DHT22;72857;44.740;37.770;2024-03-02T01:58:55;8.68;42.03
79020;DHT22;72857;44.740;37.770;2024-03-02T01:59:57;8.65;41.58
79020;DHT22;72857;44.740;37.770;2024-03-02T02:00:58;8.64;42.39
79020;DHT22;72857;44.740;37.770;2024-03-02T02:02:00;8.61;41.77
79020;DHT22;72857;44.740;37.770;2024-03-02T02:03:02;8.63;41.85
79020;DHT22;72857;44.740;37.770;2024-03-02T02:04:04;8.64;41.81
79020;DHT22;72857;44.740;37.770;2024-03-02T02:05:07;8.68;41.43
79020;DHT22;72857;44.740;37.770;2024-03-02T02:06:08;8.75;41.34
79020;DHT22;72857;44.740;37.770;2024-03-02T02:07:10;8.76;41.25
79020;DHT22;72857;44.740;37.770;2024-03-02T02:08:12;8.81;40.89
79020;DHT22;72857;44.740;37.770;2024-03-02T02:09:13;8.85;41.11
79020;DHT22;72857;44.740;37.770;2024-03-02T02:10:15;8.91;40.33
79020;DHT22;72857;44.740;37.770;2024-03-02T02:11:16;8.95;40.63
79020;DHT22;72857;44.740;37.770;2024-03-02T02:12:18;8.93;40.87
79020;DHT22;72857;44.740;37.770;2024-03-02T02:13:19;8.88;40.93
79020;DHT22;72857;44.740;37.770;2024-03-02T02:14:21;8.82;41.49
79020;DHT22;72857;44.740;37.770;2024-03-02T02:15:24;8.78;41.96
79020;DHT22;72857;44.740;37.770;2024-03-02T02:16:26;8.75;42.09
79020;DHT22;72857;44.740;37.770;2024-03-02T02:17:27;8.65;42.07
79020;DHT22;72857;44.740;37.770;2024-03-02T02:18:29;8.63;42.65
79020;DHT22;72857;44.740;37.770;2024-03-02T02:19:30;8.58;42.02
79020;DHT22;72857;44.740;37.770;2024-03-02T02:20:31;8.53;42.30
79020;DHT22;72857;44.740;37.770;2024-03-02T02:21:33;8.50;42.77
79020;DHT22;72857;44.740;37.770;2024-03-02T02:22:34;8.47;42.99
79020;DHT22;72857;44.740;37.770;2024-03-02T02:23:36;8.45;42.24
79020;DHT22;72857;44.740;37.770;2024-03-02T02:24:41;8.45;42.65
79020;DHT22;72857;44.740;37.770;2024-03-02T02:25:44;8.51;41.58
79020;DHT22;72857;44.740;37.770;2024-03-02T02:26:46;8.48;42.70
79020;DHT22;72857;44.740;37.770;2024-03-02T02:27:47;8.45;41.36
79020;DHT22;72857;44.740;37.770;2024-03-02T02:28:49;8.50;41.09
79020;DHT22;72857;44.740;37.770;2024-03-02T02:29:50;8.51;41.58
79020;DHT22;72857;44.740;37.770;2024-03-02T02:30:52;8.53;41.88
79020;DHT22;72857;44.740;37.770;2024-03-02T02:31:53;8.54;41.99
79020;DHT22;72857;44.740;37.770;2024-03-02T02:32:55;8.54;41.79
79020;DHT22;72857;44.740;37.770;2024-03-02T02:33:56;8.53;41.58
79020;DHT22;72857;44.740;37.770;2024-03-02T02:34:58;8.57;41.61
79020;DHT22;72857;44.740;37.770;2024-03-02T02:36:00;8.58;42.06
79020;DHT22;72857;44.740;37.770;2024-03-02T02:37:01;8.54;42.08
79020;DHT22;72857;44.740;37.770;2024-03-02T02:38:03;8.51;42.13
79020;DHT22;72857;44.740;37.770;2024-03-02T02:39:06;8.53;42.30
79020;DHT22;72857;44.740;37.770;2024-03-02T02:40:09;8.50;42.15
79020;DHT22;72857;44.740;37.770;2024-03-02T02:41:10;8.53;42.31
79020;DHT22;72857;44.740;37.770;2024-03-02T02:42:11;8.51;42.92
79020;DHT22;72857;44.740;37.770;2024-03-02T02:43:13;8.47;42.83
79020;DHT22;72857;44.740;37.770;2024-03-02T02:44:15;8.48;43.20
79020;DHT22;72857;44.740;37.770;2024-03-02T02:45:17;8.55;43.34
79020;DHT22;72857;44.740;37.770;2024-03-02T02:46:19;8.55;43.21
79020;DHT22;72857;44.740;37.770;2024-03-02T02:47:20;8.58;42.80
79020;DHT22;72857;44.740;37.770;2024-03-02T02:48:22;8.54;43.19
79020;DHT22;72857;44.740;37.770;2024-03-02T02:49:23;8.60;43.03
79020;DHT22;72857;44.740;37.770;2024-03-02T02:50:25;8.72;42.60
79020;DHT22;72857;44.740;37.770;2024-03-02T02:51:26;8.78;42.58
79020;DHT22;72857;44.740;37.770;2024-03-02T02:52:31;8.74;42.47
79020;DHT22;72857;44.740;37.770;2024-03-02T02:53:34;8.74;42.28
79020;DHT22;72857;44.740;37.770;2024-03-02T02:54:37;8.75;42.13
79020;DHT22;72857;44.740;37.770;2024-03-02T02:55:41;8.84;42.05
79020;DHT22;72857;44.740;37.770;2024-03-02T02:56:44;8.84;42.46
79020;DHT22;72857;44.740;37.770;2024-03-02T02:57:46;8.84;42.41
79020;DHT22;72857;44.740;37.770;2024-03-02T02:58:48;8.78;42.66
79020;DHT22;72857;44.740;37.770;2024-03-02T02:59:49;8.75;42.68
79020;DHT22;72857;44.740;37.770;2024-03-02T03:00:50;8.72;42.65
79020;DHT22;72857;44.740;37.770;2024-03-02T03:01:52;8.75;43.14
79020;DHT22;72857;44.740;37.770;2024-03-02T03:02:54;8.75;42.72
79020;DHT22;72857;44.740;37.770;2024-03-02T03:03:55;8.76;42.86
79020;DHT22;72857;44.740;37.770;2024-03-02T03:04:57;8.78;42.99
79020;DHT22;72857;44.740;37.770;2024-03-02T03:05:58;8.79;43.07
79020;DHT22;72857;44.740;37.770;2024-03-02T03:06:59;8.78;42.48
79020;DHT22;72857;44.740;37.770;2024-03-02T03:08:02;8.84;42.51
79020;DHT22;72857;44.740;37.770;2024-03-02T03:09:04;8.89;42.47
79020;DHT22;72857;44.740;37.770;2024-03-02T03:10:07;8.86;43.02
79020;DHT22;72857;44.740;37.770;2024-03-02T03:11:08;8.85;42.60
79020;DHT22;72857;44.740;37.770;2024-03-02T03:12:10;8.88;42.85
79020;DHT22;72857;44.740;37.770;2024-03-02T03:13:11;8.89;43.00
79020;DHT22;72857;44.740;37.770;2024-03-02T03:14:13;8.88;42.62
79020;DHT22;72857;44.740;37.770;2024-03-02T03:15:15;8.89;42.93
79020;DHT22;72857;44.740;37.770;2024-03-02T03:16:17;8.88;43.12
79020;DHT22;72857;44.740;37.770;2024-03-02T03:17:19;8.88;42.96
79020;DHT22;72857;44.740;37.770;2024-03-02T03:18:20;8.85;43.35
79020;DHT22;72857;44.740;37.770;2024-03-02T03:19:22;8.79;43.30
79020;DHT22;72857;44.740;37.770;2024-03-02T03:20:23;8.79;43.40
79020;DHT22;72857;44.740;37.770;2024-03-02T03:21:24;8.81;42.76
79020;DHT22;72857;44.740;37.770;2024-03-02T03:22:30;8.81;42.68
79020;DHT22;72857;44.740;37.770;2024-03-02T03:23:36;8.84;42.63
79020;DHT22;72857;44.740;37.770;2024-03-02T03:24:37;8.88;42.93
79020;DHT22;72857;44.740;37.770;2024-03-02T03:25:39;8.84;42.34
79020;DHT22;72857;44.740;37.770;2024-03-02T03:26:40;8.89;42.59
79020;DHT22;72857;44.740;37.770;2024-03-02T03:27:41;8.91;42.82
79020;DHT22;72857;44.740;37.770;2024-03-02T03:28:43;8.89;42.77
79020;DHT22;72857;44.740;37.770;2024-03-02T03:29:44;8.91;42.44
79020;DHT22;72857;44.740;37.770;2024-03-02T03:30:46;8.92;42.31
79020;DHT22;72857;44.740;37.770;2024-03-02T03:31:47;8.96;42.10
79020;DHT22;72857;44.740;37.770;2024-03-02T03:32:48;8.98;42.09
79020;DHT22;72857;44.740;37.770;2024-03-02T03:33:50;8.99;42.20
79020;DHT22;72857;44.740;37.770;2024-03-02T03:34:52;8.98;42.48
79020;DHT22;72857;44.740;37.770;2024-03-02T03:35:53;8.99;42.80
79020;DHT22;72857;44.740;37.770;2024-03-02T03:36:58;8.95;43.20
79020;DHT22;72857;44.740;37.770;2024-03-02T03:38:00;8.93;42.57
79020;DHT22;72857;44.740;37.770;2024-03-02T03:39:02;8.96;42.42
79020;DHT22;72857;44.740;37.770;2024-03-02T03:40:05;8.96;42.88
79020;DHT22;72857;44.740;37.770;2024-03-02T03:41:15;8.96;42.57
79020;DHT22;72857;44.740;37.770;2024-03-02T03:42:17;8.98;42.60
79020;DHT22;72857;44.740;37.770;2024-03-02T03:43:18;8.96;42.70
79020;DHT22;72857;44.740;37.770;2024-03-02T03:44:20;8.92;43.21
79020;DHT22;72857;44.740;37.770;2024-03-02T03:45:21;8.91;42.09
79020;DHT22;72857;44.740;37.770;2024-03-02T03:46:22;8.93;42.20
79020;DHT22;72857;44.740;37.770;2024-03-02T03:47:24;8.93;42.32
79020;DHT22;72857;44.740;37.770;2024-03-02T03:48:25;8.95;42.77
79020;DHT22;72857;44.740;37.770;2024-03-02T03:49:31;8.95;41.61
79020;DHT22;72857;44.740;37.770;2024-03-02T03:50:32;8.99;41.43
79020;DHT22;72857;44.740;37.770;2024-03-02T03:51:34;9.01;41.71
79020;DHT22;72857;44.740;37.770;2024-03-02T03:52:36;9.05;41.47
79020;DHT22;72857;44.740;37.770;2024-03-02T03:53:37;9.05;41.44
79020;DHT22;72857;44.740;37.770;2024-03-02T03:54:39;9.05;41.87
79020;DHT22;72857;44.740;37.770;2024-03-02T03:55:40;9.02;41.77
79020;DHT22;72857;44.740;37.770;2024-03-02T03:56:42;9.01;41.65
79020;DHT22;72857;44.740;37.770;2024-03-02T03:57:43;9.01;41.77
79020;DHT22;72857;44.740;37.770;2024-03-02T03:58:45;8.99;41.81
79020;DHT22;72857;44.740;37.770;2024-03-02T03:59:46;8.98;42.30
79020;DHT22;72857;44.740;37.770;2024-03-02T04:00:47;8.93;41.74
79020;DHT22;72857;44.740;37.770;2024-03-02T04:01:49;8.96;41.21
79020;DHT22;72857;44.740;37.770;2024-03-02T04:02:50;9.01;40.98
79020;DHT22;72857;44.740;37.770;2024-03-02T04:03:52;9.06;41.18
79020;DHT22;72857;44.740;37.770;2024-03-02T04:04:53;9.09;40.76
79020;DHT22;72857;44.740;37.770;2024-03-02T04:05:55;9.09;40.77
79020;DHT22;72857;44.740;37.770;2024-03-02T04:06:56;9.11;40.47
79020;DHT22;72857;44.740;37.770;2024-03-02T04:07:57;9.11;40.49
79020;DHT22;72857;44.740;37.770;2024-03-02T04:08:59;9.15;40.97
79020;DHT22;72857;44.740;37.770;2024-03-02T04:10:00;9.11;41.75
79020;DHT22;72857;44.740;37.770;2024-03-02T04:11:02;9.09;41.56
79020;DHT22;72857;44.740;37.770;2024-03-02T04:12:04;9.09;41.42
79020;DHT22;72857;44.740;37.770;2024-03-02T04:13:06;9.11;41.41
79020;DHT22;72857;44.740;37.770;2024-03-02T04:14:07;9.11;41.02
79020;DHT22;72857;44.740;37.770;2024-03-02T04:15:09;9.14;41.00
79020;DHT22;72857;44.740;37.770;2024-03-02T04:16:11;9.14;41.62
79020;DHT22;72857;44.740;37.770;2024-03-02T04:17:13;9.12;41.62
79020;DHT22;72857;44.740;37.770;2024-03-02T04:18:15;9.12;41.67
79020;DHT22;72857;44.740;37.770;2024-03-02T04:19:16;9.09;41.56
79020;DHT22;72857;44.740;37.770;2024-03-02T04:20:18;9.14;41.48
79020;DHT22;72857;44.740;37.770;2024-03-02T04:21:19;9.15;40.89
79020;DHT22;72857;44.740;37.770;2024-03-02T04:22:21;9.18;41.51
79020;DHT22;72857;44.740;37.770;2024-03-02T04:23:22;9.14;41.77
79020;DHT22;72857;44.740;37.770;2024-03-02T04:24:24;9.15;41.90
79020;DHT22;72857;44.740;37.770;2024-03-02T04:25:25;9.08;41.81
79020;DHT22;72857;44.740;37.770;2024-03-02T04:26:27;9.09;41.66
79020;DHT22;72857;44.740;37.770;2024-03-02T04:27:29;9.08;42.25
79020;DHT22;72857;44.740;37.770;2024-03-02T04:28:30;9.08;41.99
79020;DHT22;72857;44.740;37.770;2024-03-02T04:29:32;9.08;41.95
79020;DHT22;72857;44.740;37.770;2024-03-02T04:30:33;9.12;41.64
79020;DHT22;72857;44.740;37.770;2024-03-02T04:31:34;9.19;41.82
79020;DHT22;72857;44.740;37.770;2024-03-02T04:32:36;9.18;41.52
79020;DHT22;72857;44.740;37.770;2024-03-02T04:33:37;9.23;40.40
79020;DHT22;72857;44.740;37.770;2024-03-02T04:34:39;9.26;41.09
79020;DHT22;72857;44.740;37.770;2024-03-02T04:35:40;9.27;41.23
79020;DHT22;72857;44.740;37.770;2024-03-02T04:36:42;9.32;41.35
79020;DHT22;72857;44.740;37.770;2024-03-02T04:37:43;9.35;40.90
79020;DHT22;72857;44.740;37.770;2024-03-02T04:38:45;9.37;40.49
79020;DHT22;72857;44.740;37.770;2024-03-02T04:39:46;9.40;41.02
79020;DHT22;72857;44.740;37.770;2024-03-02T04:40:48;9.37;40.54
79020;DHT22;72857;44.740;37.770;2024-03-02T04:41:49;9.42;40.78
79020;DHT22;72857;44.740;37.770;2024-03-02T04:42:51;9.44;40.84
79020;DHT22;72857;44.740;37.770;2024-03-02T04:43:52;9.47;40.55
79020;DHT22;72857;44.740;37.770;2024-03-02T04:44:54;9.47;40.16
79020;DHT22;72857;44.740;37.770;2024-03-02T04:45:55;9.51;40.48
79020;DHT22;72857;44.740;37.770;2024-03-02T04:46:57;9.50;40.50
79020;DHT22;72857;44.740;37.770;2024-03-02T04:47:59;9.53;40.15
79020;DHT22;72857;44.740;37.770;2024-03-02T04:49:01;9.56;40.54
79020;DHT22;72857;44.740;37.770;2024-03-02T04:50:02;9.61;39.87
79020;DHT22;72857;44.740;37.770;2024-03-02T04:51:04;9.60;40.63
79020;DHT22;72857;44.740;37.770;2024-03-02T04:52:06;9.60;40.34
79020;DHT22;72857;44.740;37.770;2024-03-02T04:53:07;9.60;40.32
79020;DHT22;72857;44.740;37.770;2024-03-02T04:54:09;9.66;40.55
79020;DHT22;72857;44.740;37.770;2024-03-02T04:55:10;9.67;40.35
79020;DHT22;72857;44.740;37.770;2024-03-02T04:56:26;9.67;40.55
79020;DHT22;72857;44.740;37.770;2024-03-02T04:57:33;9.63;40.70
79020;DHT22;72857;44.740;37.770;2024-03-02T04:58:34;9.66;40.61
79020;DHT22;72857;44.740;37.770;2024-03-02T04:59:36;9.64;40.01
79020;DHT22;72857;44.740;37.770;2024-03-02T05:00:37;9.71;39.80
79020;DHT22;72857;44.740;37.770;2024-03-02T05:01:39;9.74;40.12
79020;DHT22;72857;44.740;37.770;2024-03-02T05:02:40;9.77;39.63
79020;DHT22;72857;44.740;37.770;2024-03-02T05:03:42;9.83;39.27
79020;DHT22;72857;44.740;37.770;2024-03-02T05:04:43;9.85;39.34
79020;DHT22;72857;44.740;37.770;2024-03-02T05:05:45;9.91;39.43
79020;DHT22;72857;44.740;37.770;2024-03-02T05:06:46;9.94;38.95
79020;DHT22;72857;44.740;37.770;2024-03-02T05:07:53;9.98;39.08
79020;DHT22;72857;44.740;37.770;2024-03-02T05:08:55;10.01;39.28
79020;DHT22;72857;44.740;37.770;2024-03-02T05:09:56;10.01;38.72
79020;DHT22;72857;44.740;37.770;2024-03-02T05:10:57;10.04;39.03
79020;DHT22;72857;44.740;37.770;2024-03-02T05:12:19;10.08;38.88
79020;DHT22;72857;44.740;37.770;2024-03-02T05:13:39;10.16;38.67
79020;DHT22;72857;44.740;37.770;2024-03-02T05:14:40;10.21;38.27
79020;DHT22;72857;44.740;37.770;2024-03-02T05:15:42;10.22;38.63
79020;DHT22;72857;44.740;37.770;2024-03-02T05:16:44;10.25;39.41
79020;DHT22;72857;44.740;37.770;2024-03-02T05:17:46;10.26;38.35
79020;DHT22;72857;44.740;37.770;2024-03-02T05:18:47;10.31;37.19
79020;DHT22;72857;44.740;37.770;2024-03-02T05:19:49;10.36;37.45
79020;DHT22;72857;44.740;37.770;2024-03-02T05:20:50;10.41;38.47
79020;DHT22;72857;44.740;37.770;2024-03-02T05:21:51;10.42;38.23
79020;DHT22;72857;44.740;37.770;2024-03-02T05:22:53;10.44;38.58
79020;DHT22;72857;44.740;37.770;2024-03-02T05:23:55;10.45;36.92
79020;DHT22;72857;44.740;37.770;2024-03-02T05:24:56;10.53;37.62
79020;DHT22;72857;44.740;37.770;2024-03-02T05:25:57;10.53;38.10
79020;DHT22;72857;44.740;37.770;2024-03-02T05:26:59;10.57;36.43
79020;DHT22;72857;44.740;37.770;2024-03-02T05:28:00;10.67;36.65
79020;DHT22;72857;44.740;37.770;2024-03-02T05:29:02;10.73;37.19
79020;DHT22;72857;44.740;37.770;2024-03-02T05:30:04;10.77;36.98
79020;DHT22;72857;44.740;37.770;2024-03-02T05:31:10;10.80;36.87
79020;DHT22;72857;44.740;37.770;2024-03-02T05:32:12;10.80;36.75
79020;DHT22;72857;44.740;37.770;2024-03-02T05:33:13;10.84;36.75
79020;DHT22;72857;44.740;37.770;2024-03-02T05:34:15;10.83;37.06
79020;DHT22;72857;44.740;37.770;2024-03-02T05:35:16;10.92;36.82
79020;DHT22;72857;44.740;37.770;2024-03-02T05:36:18;10.94;36.25
79020;DHT22;72857;44.740;37.770;2024-03-02T05:37:19;11.01;36.33
79020;DHT22;72857;44.740;37.770;2024-03-02T05:38:21;11.06;36.45
79020;DHT22;72857;44.740;37.770;2024-03-02T05:39:23;11.08;36.91
79020;DHT22;72857;44.740;37.770;2024-03-02T05:40:24;11.10;36.98
79020;DHT22;72857;44.740;37.770;2024-03-02T05:41:25;11.07;37.14
79020;DHT22;72857;44.740;37.770;2024-03-02T05:42:27;11.08;37.20
79020;DHT22;72857;44.740;37.770;2024-03-02T05:43:29;11.07;36.96
79020;DHT22;72857;44.740;37.770;2024-03-02T05:44:30;11.14;37.33
79020;DHT22;72857;44.740;37.770;2024-03-02T05:45:31;11.10;37.25
79020;DHT22;72857;44.740;37.770;2024-03-02T05:46:33;11.11;37.14
79020;DHT22;72857;44.740;37.770;2024-03-02T05:47:34;11.13;37.34
79020;DHT22;72857;44.740;37.770;2024-03-02T05:48:36;11.13;37.05
79020;DHT22;72857;44.740;37.770;2024-03-02T05:49:38;11.16;37.00
79020;DHT22;72857;44.740;37.770;2024-03-02T05:50:40;11.18;37.02
79020;DHT22;72857;44.740;37.770;2024-03-02T05:51:41;11.20;36.92
79020;DHT22;72857;44.740;37.770;2024-03-02T05:52:42;11.21;36.88
79020;DHT22;72857;44.740;37.770;2024-03-02T05:53:44;11.23;37.23
79020;DHT22;72857;44.740;37.770;2024-03-02T05:54:45;11.25;37.09
79020;DHT22;72857;44.740;37.770;2024-03-02T05:55:47;11.23;37.37
79020;DHT22;72857;44.740;37.770;2024-03-02T05:56:54;11.25;37.19
79020;DHT22;72857;44.740;37.770;2024-03-02T05:57:55;11.28;37.32
79020;DHT22;72857;44.740;37.770;2024-03-02T05:59:17;11.31;37.17
79020;DHT22;72857;44.740;37.770;2024-03-02T06:00:18;11.31;37.22
79020;DHT22;72857;44.740;37.770;2024-03-02T06:01:21;11.27;37.27
79020;DHT22;72857;44.740;37.770;2024-03-02T06:02:29;11.34;37.29
79020;DHT22;72857;44.740;37.770;2024-03-02T06:03:30;11.32;37.31
79020;DHT22;72857;44.740;37.770;2024-03-02T06:04:32;11.32;37.37
79020;DHT22;72857;44.740;37.770;2024-03-02T06:05:33;11.37;37.39
79020;DHT22;72857;44.740;37.770;2024-03-02T06:06:35;11.38;37.40
79020;DHT22;72857;44.740;37.770;2024-03-02T06:07:36;11.38;37.19
79020;DHT22;72857;44.740;37.770;2024-03-02T06:08:38;11.37;37.39
79020;DHT22;72857;44.740;37.770;2024-03-02T06:09:40;11.41;37.35
79020;DHT22;72857;44.740;37.770;2024-03-02T06:10:43;11.44;37.30
79020;DHT22;72857;44.740;37.770;2024-03-02T06:11:44;11.41;37.27
79020;DHT22;72857;44.740;37.770;2024-03-02T06:12:46;11.39;37.53
79020;DHT22;72857;44.740;37.770;2024-03-02T06:13:47;11.34;37.45
79020;DHT22;72857;44.740;37.770;2024-03-02T06:14:49;11.35;37.99
79020;DHT22;72857;44.740;37.770;2024-03-02T06:15:50;11.37;37.88
79020;DHT22;72857;44.740;37.770;2024-03-02T06:16:52;11.35;37.86
79020;DHT22;72857;44.740;37.770;2024-03-02T06:17:53;11.42;37.46
79020;DHT22;72857;44.740;37.770;2024-03-02T06:18:55;11.48;37.13
79020;DHT22;72857;44.740;37.770;2024-03-02T06:19:58;11.55;37.13
79020;DHT22;72857;44.740;37.770;2024-03-02T06:21:00;11.59;36.99
79020;DHT22;72857;44.740;37.770;2024-03-02T06:22:04;11.61;37.10
79020;DHT22;72857;44.740;37.770;2024-03-02T06:23:06;11.62;36.95
79020;DHT22;72857;44.740;37.770;2024-03-02T06:24:08;11.66;37.01
79020;DHT22;72857;44.740;37.770;2024-03-02T06:25:09;11.69;37.07
79020;DHT22;72857;44.740;37.770;2024-03-02T06:26:11;11.82;36.89
79020;DHT22;72857;44.740;37.770;2024-03-02T06:27:13;11.83;36.95
79020;DHT22;72857;44.740;37.770;2024-03-02T06:28:14;11.86;36.44
79020;DHT22;72857;44.740;37.770;2024-03-02T06:29:16;11.92;36.06
79020;DHT22;72857;44.740;37.770;2024-03-02T06:30:17;11.92;36.39
79020;DHT22;72857;44.740;37.770;2024-03-02T06:31:19;11.93;36.09
79020;DHT22;72857;44.740;37.770;2024-03-02T06:32:21;11.97;35.96
79020;DHT22;72857;44.740;37.770;2024-03-02T06:33:22;12.03;36.31